Time;durP1;ratioP1;P1;durP2;ratioP2;P2;SDS_P1;SDS_P2;PMS_P1;PMS_P2;Temp;Humidity;BMP_temperature;BMP_pressure;BME280_temperature;BME280_humidity;BME280_pressure;Samples;Min_cycle;Max_cycle;Signal;HPM_P1;HPM_P2
2022/07/24 00:00:27;;;;;;;1.60;1.50;;;18.60;99.90;;;;;;5052790;28;20630;-67
2022/07/24 00:02:52;;;;;;;1.40;1.30;;;18.60;99.90;;;;;;5052939;28;20184;-67
2022/07/24 00:05:18;;;;;;;1.50;1.40;;;18.60;99.90;;;;;;5053539;28;20708;-68
2022/07/24 00:07:44;;;;;;;1.57;1.47;;;18.60;99.90;;;;;;5056733;28;20276;-67
2022/07/24 00:10:10;;;;;;;1.50;1.40;;;18.50;99.90;;;;;;5056933;28;20261;-67
2022/07/24 00:12:36;;;;;;;2.63;1.70;;;18.60;99.90;;;;;;5056666;28;20172;-67
2022/07/24 00:15:03;;;;;;;1.00;1.00;;;18.60;99.90;;;;;;5056921;28;20439;-67
2022/07/24 00:17:29;;;;;;;1.90;1.80;;;18.60;99.90;;;;;;5056582;28;20435;-68
2022/07/24 00:19:55;;;;;;;2.67;2.43;;;18.60;99.90;;;;;;5056645;28;20413;-67
2022/07/24 00:22:20;;;;;;;2.20;2.10;;;18.50;99.90;;;;;;5056946;28;20180;-68
2022/07/24 00:24:46;;;;;;;2.40;1.10;;;18.50;99.90;;;;;;5056325;28;20579;-67
2022/07/24 00:27:12;;;;;;;3.40;2.53;;;18.50;99.90;;;;;;5056518;28;20261;-66
2022/07/24 00:29:37;;;;;;;2.07;1.87;;;18.40;99.90;;;;;;5056497;28;20171;-67
2022/07/24 00:32:03;;;;;;;1.47;1.37;;;18.30;99.90;;;;;;5056531;28;20256;-67
2022/07/24 00:34:29;;;;;;;1.93;1.33;;;18.40;99.90;;;;;;5056215;28;20174;-68
2022/07/24 00:36:55;;;;;;;1.30;1.20;;;18.40;99.90;;;;;;5056363;28;20412;-67
2022/07/24 00:39:21;;;;;;;2.00;1.67;;;18.50;99.90;;;;;;5056270;28;20253;-66
2022/07/24 00:41:46;;;;;;;1.73;1.63;;;18.50;99.90;;;;;;5056424;28;20205;-68
2022/07/24 00:44:14;;;;;;;1.80;1.70;;;18.60;99.90;;;;;;5056114;28;20662;-67
2022/07/24 00:46:42;;;;;;;2.50;2.37;;;18.60;99.90;;;;;;5056225;28;20205;-67
2022/07/24 00:49:12;;;;;;;2.67;2.00;;;18.60;99.90;;;;;;5055824;28;20847;-68
2022/07/24 00:51:40;;;;;;;3.17;2.10;;;18.60;99.90;;;;;;5056252;28;20407;-67
2022/07/24 00:54:08;;;;;;;1.93;1.70;;;18.60;99.90;;;;;;5055935;28;20870;-66
2022/07/24 00:56:34;;;;;;;1.70;1.60;;;18.60;99.90;;;;;;5056079;28;20419;-68
2022/07/24 00:59:01;;;;;;;2.83;2.33;;;18.50;99.90;;;;;;5056508;28;20430;-67
2022/07/24 01:01:27;;;;;;;3.00;2.77;;;18.50;99.90;;;;;;5056040;28;20509;-68
2022/07/24 01:03:53;;;;;;;1.60;1.50;;;18.40;99.90;;;;;;5055540;28;20553;-69
2022/07/24 01:06:19;;;;;;;2.00;1.90;;;18.40;99.90;;;;;;5056006;28;20436;-69
2022/07/24 01:08:45;;;;;;;2.50;1.67;;;18.40;99.90;;;;;;5055827;28;20183;-70
2022/07/24 01:11:11;;;;;;;1.50;1.40;;;18.40;99.90;;;;;;5055957;28;20464;-69
2022/07/24 01:13:38;;;;;;;2.30;1.83;;;18.40;99.90;;;;;;5055620;28;20827;-70
2022/07/24 01:16:04;;;;;;;1.63;1.30;;;18.40;99.90;;;;;;5056118;28;20416;-69
2022/07/24 01:18:29;;;;;;;3.33;2.07;;;18.50;99.90;;;;;;5054889;28;20442;-69
2022/07/24 01:20:55;;;;;;;2.27;1.67;;;18.50;99.90;;;;;;5055654;28;20410;-71
2022/07/24 01:23:22;;;;;;;1.53;1.43;;;18.40;99.90;;;;;;5055417;28;20181;-70
2022/07/24 01:25:48;;;;;;;2.10;1.90;;;18.40;99.90;;;;;;5055644;28;20924;-69
2022/07/24 01:28:14;;;;;;;1.20;1.10;;;18.50;99.90;;;;;;5055426;28;20453;-70
2022/07/24 01:30:40;;;;;;;1.00;0.97;;;18.50;99.90;;;;;;5055440;28;20581;-69
2022/07/24 01:33:06;;;;;;;0.87;0.87;;;18.50;99.90;;;;;;5055367;28;20415;-70
2022/07/24 01:35:32;;;;;;;1.60;1.50;;;18.50;99.90;;;;;;5055526;28;20185;-71
2022/07/24 01:37:58;;;;;;;1.87;1.77;;;18.60;99.90;;;;;;5055460;28;20925;-70
2022/07/24 01:40:24;;;;;;;2.10;1.97;;;18.60;99.90;;;;;;5055270;28;20609;-69
2022/07/24 01:42:50;;;;;;;1.33;1.23;;;18.70;99.90;;;;;;5055200;28;20413;-69
2022/07/24 01:45:16;;;;;;;1.83;1.67;;;18.70;99.90;;;;;;5037186;28;20343;-71
2022/07/24 01:47:43;;;;;;;2.97;2.73;;;18.70;99.90;;;;;;5054934;28;20449;-70
2022/07/24 01:50:10;;;;;;;1.50;1.37;;;18.70;99.90;;;;;;5055149;28;20436;-69
2022/07/24 01:52:36;;;;;;;2.00;1.60;;;18.70;99.90;;;;;;5054958;28;20405;-69
2022/07/24 01:55:02;;;;;;;2.00;1.90;;;18.70;99.90;;;;;;5055211;28;20881;-70
2022/07/24 01:57:28;;;;;;;1.47;1.40;;;18.70;99.90;;;;;;5055107;28;20498;-70
2022/07/24 01:59:53;;;;;;;3.13;2.93;;;18.70;99.90;;;;;;5054839;28;21321;-70
2022/07/24 02:02:19;;;;;;;2.00;1.70;;;18.70;99.90;;;;;;5055045;28;20624;-70
2022/07/24 02:04:44;;;;;;;2.20;1.97;;;18.70;99.90;;;;;;5054658;28;20202;-70
2022/07/24 02:07:10;;;;;;;1.93;1.83;;;18.70;99.90;;;;;;5054700;28;20176;-69
2022/07/24 02:09:36;;;;;;;2.10;1.77;;;18.70;99.90;;;;;;5054669;28;20173;-69
2022/07/24 02:12:01;;;;;;;2.10;2.00;;;18.80;99.90;;;;;;5054720;28;20177;-70
2022/07/24 02:14:27;;;;;;;1.83;1.43;;;18.70;99.90;;;;;;5054379;28;20266;-71
2022/07/24 02:16:52;;;;;;;2.87;2.60;;;18.70;99.90;;;;;;5054493;28;20186;-69
2022/07/24 02:19:18;;;;;;;2.60;2.40;;;18.70;99.90;;;;;;5054393;28;20198;-70
2022/07/24 02:21:44;;;;;;;0.70;0.70;;;18.60;99.90;;;;;;5054589;28;20170;-70
2022/07/24 02:24:09;;;;;;;2.90;2.27;;;18.60;99.90;;;;;;5054371;28;20566;-70
2022/07/24 02:26:35;;;;;;;1.60;1.50;;;18.50;99.90;;;;;;5054537;28;20667;-69
2022/07/24 02:29:00;;;;;;;2.27;2.17;;;18.40;99.90;;;;;;5053382;28;20289;-70
2022/07/24 02:31:26;;;;;;;1.33;1.23;;;18.40;99.90;;;;;;5054248;28;20206;-69
2022/07/24 02:33:52;;;;;;;1.67;1.37;;;18.30;99.90;;;;;;5054106;28;20261;-70
2022/07/24 02:36:17;;;;;;;5.00;2.10;;;18.30;99.90;;;;;;5054265;28;20178;-70
2022/07/24 02:38:43;;;;;;;2.20;1.73;;;18.20;99.90;;;;;;5054202;28;20201;-70
2022/07/24 02:41:09;;;;;;;1.80;1.53;;;18.20;99.90;;;;;;5054102;28;20175;-70
2022/07/24 02:43:34;;;;;;;1.90;1.80;;;18.30;99.90;;;;;;5054492;28;20176;-69
2022/07/24 02:46:00;;;;;;;2.20;1.60;;;18.30;99.90;;;;;;5054201;28;20215;-69
2022/07/24 02:48:26;;;;;;;1.80;1.70;;;18.30;99.90;;;;;;5053733;28;20205;-69
2022/07/24 02:50:52;;;;;;;1.33;1.20;;;18.40;99.90;;;;;;5054056;28;20185;-70
2022/07/24 02:53:17;;;;;;;2.30;2.03;;;18.30;99.90;;;;;;5053834;28;20500;-69
2022/07/24 02:55:43;;;;;;;1.60;1.50;;;18.40;99.90;;;;;;5053762;28;20408;-69
2022/07/24 02:58:09;;;;;;;1.40;1.30;;;18.40;99.90;;;;;;5053971;28;20215;-70
2022/07/24 03:00:35;;;;;;;2.10;1.90;;;18.40;99.90;;;;;;5053790;28;20443;-71
2022/07/24 03:03:01;;;;;;;1.37;1.37;;;18.40;99.90;;;;;;5053572;28;20178;-69
2022/07/24 03:05:27;;;;;;;1.57;1.47;;;18.30;99.90;;;;;;5053749;28;20205;-70
2022/07/24 03:07:52;;;;;;;1.37;1.30;;;18.30;99.90;;;;;;5053681;28;20799;-70
2022/07/24 03:10:18;;;;;;;1.33;1.23;;;18.30;99.90;;;;;;5053598;28;20175;-70
2022/07/24 03:12:44;;;;;;;1.83;1.73;;;18.30;99.90;;;;;;5053485;28;20212;-70
2022/07/24 03:15:11;;;;;;;1.97;1.87;;;18.20;99.90;;;;;;5053480;28;20175;-70
2022/07/24 03:17:37;;;;;;;1.40;1.23;;;18.10;99.90;;;;;;5053390;28;20436;-70
2022/07/24 03:20:06;;;;;;;2.17;2.07;;;18.00;99.90;;;;;;5053509;28;20405;-70
2022/07/24 03:22:31;;;;;;;2.23;1.57;;;18.00;99.90;;;;;;5053223;28;20686;-70
2022/07/24 03:24:57;;;;;;;1.77;1.63;;;18.00;99.90;;;;;;5053447;28;20535;-69
2022/07/24 03:27:23;;;;;;;1.83;1.73;;;17.90;99.90;;;;;;5053757;28;20198;-71
2022/07/24 03:29:48;;;;;;;1.73;1.50;;;17.90;99.90;;;;;;5053524;28;20619;-69
2022/07/24 03:32:14;;;;;;;1.50;1.40;;;17.80;99.90;;;;;;5053683;28;20579;-70
2022/07/24 03:34:40;;;;;;;3.23;1.93;;;17.80;99.90;;;;;;5053293;28;20201;-70
2022/07/24 03:37:05;;;;;;;0.80;0.80;;;17.80;99.90;;;;;;5053348;28;20174;-70
2022/07/24 03:39:31;;;;;;;2.00;1.80;;;17.80;99.90;;;;;;5053209;28;20174;-69
2022/07/24 03:41:57;;;;;;;3.13;2.53;;;17.70;99.90;;;;;;5056925;28;20649;-68
2022/07/24 03:44:22;;;;;;;2.53;1.67;;;17.70;99.90;;;;;;5057240;28;20661;-70
2022/07/24 03:46:48;;;;;;;1.97;1.87;;;17.70;99.90;;;;;;5057470;28;20173;-69
2022/07/24 03:49:14;;;;;;;1.83;1.73;;;17.60;99.90;;;;;;5057156;28;20205;-70
2022/07/24 03:51:39;;;;;;;1.40;1.30;;;17.60;99.90;;;;;;5057490;28;20533;-70
2022/07/24 03:54:05;;;;;;;1.70;1.60;;;17.50;99.90;;;;;;5056992;28;20665;-70
2022/07/24 03:56:31;;;;;;;2.13;2.00;;;17.60;99.90;;;;;;5057198;28;20177;-70
2022/07/24 03:58:56;;;;;;;3.53;2.10;;;17.60;99.90;;;;;;5039103;28;20726;-70
2022/07/24 04:01:22;;;;;;;1.30;1.20;;;17.50;99.90;;;;;;5057152;28;20170;-68
2022/07/24 04:03:48;;;;;;;1.50;1.40;;;17.50;99.90;;;;;;5057026;28;20204;-69
2022/07/24 04:06:14;;;;;;;1.73;1.60;;;17.50;99.90;;;;;;5057169;28;20167;-69
2022/07/24 04:08:40;;;;;;;2.17;2.03;;;17.50;99.90;;;;;;5039334;28;20424;-69
2022/07/24 04:11:07;;;;;;;3.30;2.73;;;17.50;99.90;;;;;;5056948;28;20401;-68
2022/07/24 04:13:33;;;;;;;2.00;1.50;;;17.50;99.90;;;;;;5056922;28;20170;-69
2022/07/24 04:15:59;;;;;;;1.60;1.33;;;17.50;99.90;;;;;;5056887;28;20824;-69
2022/07/24 04:18:26;;;;;;;2.13;1.57;;;17.40;99.90;;;;;;5056821;28;20428;-68
2022/07/24 04:20:52;;;;;;;1.20;1.20;;;17.50;99.90;;;;;;5056750;28;20908;-69
2022/07/24 04:23:18;;;;;;;1.70;1.60;;;17.50;99.90;;;;;;5056540;28;20451;-69
2022/07/24 04:25:44;;;;;;;2.03;1.93;;;17.40;99.90;;;;;;5056682;28;20452;-71
2022/07/24 04:28:10;;;;;;;3.03;2.20;;;17.50;99.90;;;;;;5056523;28;20910;-68
2022/07/24 04:30:36;;;;;;;1.70;1.20;;;17.50;99.90;;;;;;5056774;28;20415;-69
2022/07/24 04:33:01;;;;;;;1.27;1.10;;;17.50;99.90;;;;;;5056434;28;20191;-70
2022/07/24 04:35:27;;;;;;;1.43;1.30;;;17.50;99.90;;;;;;5056624;28;20172;-70
2022/07/24 04:37:53;;;;;;;1.47;1.37;;;17.60;99.90;;;;;;5056376;28;20194;-70
2022/07/24 04:40:18;;;;;;;2.43;2.20;;;17.70;99.90;;;;;;5056596;28;20258;-69
2022/07/24 04:42:44;;;;;;;2.20;2.10;;;17.70;99.90;;;;;;5056345;28;20177;-70
2022/07/24 04:45:11;;;;;;;1.93;1.73;;;17.70;99.90;;;;;;5056014;28;20666;-70
2022/07/24 04:47:37;;;;;;;1.63;1.37;;;17.80;99.90;;;;;;5038199;28;20234;-70
2022/07/24 04:50:05;;;;;;;1.90;1.80;;;17.90;99.90;;;;;;5056265;28;20390;-71
2022/07/24 04:52:31;;;;;;;1.30;1.20;;;18.00;99.90;;;;;;5055037;28;20512;-68
2022/07/24 04:54:56;;;;;;;2.87;1.60;;;18.20;99.90;;;;;;5056091;28;20467;-70
2022/07/24 04:57:22;;;;;;;1.73;1.63;;;18.50;99.90;;;;;;5055992;28;20190;-70
2022/07/24 04:59:48;;;;;;;1.63;0.80;;;18.80;99.90;;;;;;5055983;28;20659;-71
2022/07/24 05:02:13;;;;;;;1.63;1.53;;;19.10;99.90;;;;;;5056080;28;20215;-69
2022/07/24 05:04:39;;;;;;;2.47;2.00;;;19.40;99.90;;;;;;5038101;28;20542;-70
2022/07/24 05:07:05;;;;;;;1.93;1.80;;;20.00;99.90;;;;;;5055961;28;20200;-70
2022/07/24 05:09:30;;;;;;;2.20;1.60;;;20.40;99.90;;;;;;5037995;28;20204;-70
2022/07/24 05:11:56;;;;;;;1.20;1.10;;;20.60;99.80;;;;;;5056064;28;20169;-70
2022/07/24 05:14:22;;;;;;;1.27;1.17;;;20.70;99.80;;;;;;5055599;28;20181;-71
2022/07/24 05:16:48;;;;;;;1.00;0.97;;;20.80;99.90;;;;;;5055926;28;20178;-67
2022/07/24 05:19:13;;;;;;;1.30;1.20;;;21.00;99.60;;;;;;5055461;28;20210;-67
2022/07/24 05:21:39;;;;;;;1.60;1.50;;;21.20;99.10;;;;;;5056345;28;20416;-70
2022/07/24 05:24:05;;;;;;;0.80;0.80;;;21.40;98.80;;;;;;5055697;28;20285;-69
2022/07/24 05:26:31;;;;;;;1.33;0.90;;;21.60;98.40;;;;;;5055887;28;20168;-69
2022/07/24 05:28:58;;;;;;;1.43;1.33;;;21.80;97.70;;;;;;5055933;28;20424;-68
2022/07/24 05:31:24;;;;;;;1.50;1.40;;;21.80;97.40;;;;;;5055530;28;20455;-70
2022/07/24 05:33:50;;;;;;;1.57;1.17;;;21.70;97.90;;;;;;5055450;28;20405;-70
2022/07/24 05:36:16;;;;;;;1.47;1.37;;;21.50;98.00;;;;;;5056084;28;20405;-70
2022/07/24 05:38:43;;;;;;;1.90;1.00;;;21.40;97.50;;;;;;5055459;28;20606;-70
2022/07/24 05:41:10;;;;;;;2.10;1.30;;;21.50;98.00;;;;;;5055604;28;20598;-71
2022/07/24 05:43:35;;;;;;;1.60;1.50;;;21.60;98.10;;;;;;5054285;28;20445;-70
2022/07/24 05:46:01;;;;;;;1.20;1.10;;;21.70;97.60;;;;;;5054804;28;20445;-69
2022/07/24 05:48:27;;;;;;;2.10;1.33;;;21.70;97.20;;;;;;5054953;28;20229;-69
2022/07/24 05:50:52;;;;;;;2.27;2.17;;;21.80;97.40;;;;;;5055075;28;20182;-68
2022/07/24 05:53:18;;;;;;;1.63;1.53;;;21.90;97.80;;;;;;5054946;28;20574;-70
2022/07/24 05:55:43;;;;;;;1.50;1.40;;;22.00;97.50;;;;;;5054636;28;20199;-70
2022/07/24 05:58:09;;;;;;;0.70;0.70;;;22.10;97.20;;;;;;5054639;28;20239;-70
2022/07/24 06:00:35;;;;;;;1.20;0.70;;;22.40;96.60;;;;;;5055012;28;20540;-70
2022/07/24 06:03:00;;;;;;;1.03;0.90;;;22.90;95.70;;;;;;5054773;28;20170;-69
2022/07/24 06:05:26;;;;;;;1.27;1.20;;;23.30;94.80;;;;;;5053269;28;20196;-70
2022/07/24 06:07:52;;;;;;;1.77;1.67;;;23.40;94.80;;;;;;5054078;28;20192;-70
2022/07/24 06:10:18;;;;;;;1.23;1.17;;;23.40;94.30;;;;;;5054342;28;20468;-70
2022/07/24 06:12:43;;;;;;;2.67;0.97;;;23.40;94.00;;;;;;5054792;28;20648;-70
2022/07/24 06:15:10;;;;;;;0.97;0.97;;;23.30;94.00;;;;;;5054880;28;20177;-71
2022/07/24 06:17:35;;;;;;;1.83;1.73;;;23.40;94.60;;;;;;5054902;28;20202;-70
2022/07/24 06:20:01;;;;;;;0.90;0.90;;;23.50;95.00;;;;;;5055231;28;20401;-70
2022/07/24 06:22:27;;;;;;;1.50;1.30;;;23.90;94.50;;;;;;5054342;28;20261;-71
2022/07/24 06:24:52;;;;;;;0.77;0.77;;;24.70;93.80;;;;;;5052076;28;20208;-70
2022/07/24 06:27:18;;;;;;;1.73;1.63;;;25.50;92.20;;;;;;5052323;28;20277;-67
2022/07/24 06:29:43;;;;;;;1.43;1.33;;;26.10;91.90;;;;;;5053548;28;20170;-68
2022/07/24 06:32:09;;;;;;;1.50;1.40;;;26.80;90.30;;;;;;5053220;28;20174;-68
2022/07/24 06:34:35;;;;;;;1.27;1.27;;;27.30;87.30;;;;;;5053675;28;20171;-67
2022/07/24 06:37:00;;;;;;;2.20;2.00;;;27.60;88.00;;;;;;5053703;28;20182;-69
2022/07/24 06:39:26;;;;;;;1.77;1.67;;;27.70;85.30;;;;;;5053755;28;20244;-67
2022/07/24 06:41:51;;;;;;;2.53;1.80;;;27.70;85.50;;;;;;5054138;28;20186;-67
2022/07/24 06:44:17;;;;;;;1.37;1.27;;;27.40;85.50;;;;;;5053954;28;20323;-68
2022/07/24 06:46:43;;;;;;;1.57;1.23;;;27.30;84.80;;;;;;5054243;28;20694;-66
2022/07/24 06:49:08;;;;;;;1.77;1.67;;;27.60;85.70;;;;;;5053687;28;20284;-68
2022/07/24 06:51:34;;;;;;;1.40;1.30;;;28.40;82.40;;;;;;5053869;28;20170;-68
2022/07/24 06:53:59;;;;;;;3.40;2.33;;;29.40;79.30;;;;;;5053794;28;20178;-67
2022/07/24 06:56:25;;;;;;;1.70;1.60;;;30.20;78.20;;;;;;5053736;28;20268;-69
2022/07/24 06:58:51;;;;;;;1.90;1.63;;;31.00;74.80;;;;;;5053694;28;20209;-69
2022/07/24 07:01:16;;;;;;;2.17;2.00;;;31.70;73.00;;;;;;5053946;28;20638;-68
2022/07/24 07:03:42;;;;;;;1.97;1.80;;;32.20;71.80;;;;;;5053350;28;20182;-67
2022/07/24 07:06:08;;;;;;;1.90;1.80;;;32.60;68.00;;;;;;5053618;28;20173;-67
2022/07/24 07:08:34;;;;;;;1.43;1.37;;;33.20;63.70;;;;;;5053633;28;20428;-68
2022/07/24 07:10:59;;;;;;;1.60;1.50;;;33.90;61.30;;;;;;5053656;28;20166;-69
2022/07/24 07:13:25;;;;;;;2.70;2.17;;;35.00;58.30;;;;;;5053631;28;20625;-67
2022/07/24 07:15:51;;;;;;;1.77;1.67;;;35.50;56.20;;;;;;5053560;28;20611;-69
2022/07/24 07:18:16;;;;;;;2.30;2.10;;;35.40;55.40;;;;;;5053335;28;20213;-69
2022/07/24 07:20:42;;;;;;;1.27;1.17;;;35.00;54.10;;;;;;5053176;28;20189;-70
2022/07/24 07:23:08;;;;;;;2.20;1.53;;;34.40;54.00;;;;;;5053340;28;20174;-69
2022/07/24 07:25:33;;;;;;;2.57;2.37;;;33.90;55.50;;;;;;5053580;28;20205;-69
2022/07/24 07:27:59;;;;;;;2.27;2.07;;;33.70;55.50;;;;;;5053562;28;20201;-69
2022/07/24 07:30:25;;;;;;;1.87;1.77;;;33.50;56.00;;;;;;5035501;28;20174;-68
2022/07/24 07:32:50;;;;;;;1.43;1.33;;;33.60;55.20;;;;;;5053222;28;20196;-70
2022/07/24 07:35:16;;;;;;;1.87;1.77;;;33.90;55.80;;;;;;5053372;28;20174;-69
2022/07/24 07:37:45;;;;;;;2.23;2.03;;;34.20;52.40;;;;;;5053314;28;20220;-70
2022/07/24 07:40:11;;;;;;;2.80;1.70;;;34.60;51.50;;;;;;5053344;28;20604;-69
2022/07/24 07:42:36;;;;;;;2.20;2.10;;;35.80;51.50;;;;;;5051672;28;20436;-73
2022/07/24 07:45:02;;;;;;;1.80;1.70;;;36.70;47.60;;;;;;5051636;28;20209;-70
2022/07/24 07:47:28;;;;;;;1.73;1.60;;;37.30;45.40;;;;;;5053560;28;20210;-69
2022/07/24 07:49:53;;;;;;;1.73;1.63;;;37.50;45.00;;;;;;5053313;28;20419;-71
2022/07/24 07:52:19;;;;;;;2.43;2.27;;;38.10;44.60;;;;;;5053009;28;20635;-70
2022/07/24 07:54:45;;;;;;;1.60;1.50;;;39.10;42.00;;;;;;5053374;28;20170;-69
2022/07/24 07:57:11;;;;;;;1.90;1.77;;;40.20;40.50;;;;;;5053288;28;20185;-71
2022/07/24 07:59:36;;;;;;;1.83;1.70;;;41.10;39.80;;;;;;5053233;28;20600;-70
2022/07/24 08:02:02;;;;;;;1.80;1.70;;;41.50;37.70;;;;;;5053077;28;20571;-70
2022/07/24 08:04:28;;;;;;;1.63;1.53;;;41.70;37.00;;;;;;5052603;28;20677;-70
2022/07/24 08:06:53;;;;;;;1.83;1.73;;;42.10;37.30;;;;;;5052995;28;20167;-69
2022/07/24 08:09:20;;;;;;;1.50;1.40;;;42.10;35.60;;;;;;5035137;28;20194;-70
2022/07/24 08:11:47;;;;;;;1.70;1.60;;;41.40;35.90;;;;;;5053203;28;20167;-70
2022/07/24 08:14:12;;;;;;;2.03;1.83;;;41.10;35.20;;;;;;5052613;28;20409;-70
2022/07/24 08:16:38;;;;;;;2.17;1.90;;;41.40;36.70;;;;;;5053609;28;20411;-71
2022/07/24 08:19:04;;;;;;;1.93;1.83;;;42.10;36.40;;;;;;5052925;28;20192;-70
2022/07/24 08:21:31;;;;;;;1.70;1.60;;;42.50;35.00;;;;;;5034395;28;20261;-70
2022/07/24 08:23:57;;;;;;;1.27;1.20;;;43.00;34.80;;;;;;5034395;28;20206;-71
2022/07/24 08:26:22;;;;;;;2.10;1.90;;;42.60;34.40;;;;;;5053477;28;20818;-70
2022/07/24 08:28:48;;;;;;;2.73;1.83;;;42.30;32.40;;;;;;5056616;28;20201;-70
2022/07/24 08:31:13;;;;;;;2.53;1.40;;;42.70;34.30;;;;;;5056796;28;20532;-70
2022/07/24 08:33:39;;;;;;;2.23;2.03;;;43.30;32.00;;;;;;5056349;28;20170;-69
2022/07/24 08:36:05;;;;;;;1.67;1.57;;;43.40;32.70;;;;;;5056644;28;20542;-70
2022/07/24 08:38:31;;;;;;;3.00;1.80;;;43.70;33.40;;;;;;5056146;28;20201;-71
2022/07/24 08:40:57;;;;;;;2.07;1.97;;;43.50;32.30;;;;;;5056941;28;20401;-70
2022/07/24 08:43:22;;;;;;;1.60;1.50;;;43.80;31.60;;;;;;5056520;28;20174;-68
2022/07/24 08:45:50;;;;;;;1.97;1.87;;;43.80;31.60;;;;;;5056497;28;20212;-71
2022/07/24 08:48:18;;;;;;;1.70;1.60;;;43.80;31.30;;;;;;5056032;28;20197;-71
2022/07/24 08:50:44;;;;;;;1.80;1.70;;;43.30;32.00;;;;;;5056036;28;20443;-71
2022/07/24 08:53:10;;;;;;;1.53;1.43;;;43.00;32.10;;;;;;5056225;28;20470;-71
2022/07/24 08:55:36;;;;;;;1.93;1.73;;;43.20;32.90;;;;;;5056222;28;20528;-71
2022/07/24 08:58:02;;;;;;;1.27;1.17;;;43.30;33.00;;;;;;5056024;28;20518;-70
2022/07/24 09:00:30;;;;;;;1.77;1.67;;;42.30;32.80;;;;;;5056067;28;20177;-71
2022/07/24 09:02:55;;;;;;;3.33;2.40;;;40.20;35.00;;;;;;5055968;28;20170;-70
2022/07/24 09:05:21;;;;;;;1.83;1.73;;;38.50;37.60;;;;;;5056165;28;20456;-70
2022/07/24 09:07:47;;;;;;;1.93;1.83;;;37.20;38.90;;;;;;5055514;28;20193;-70
2022/07/24 09:10:16;;;;;;;1.20;1.10;;;37.20;40.50;;;;;;5056079;28;20166;-69
2022/07/24 09:12:48;;;;;;;1.60;1.50;;;38.10;39.00;;;;;;5055731;28;20227;-71
2022/07/24 09:15:16;;;;;;;1.73;1.60;;;39.10;36.80;;;;;;5055680;28;20408;-69
2022/07/24 09:17:58;;;;;;;1.70;1.60;;;39.50;38.20;;;;;;5055744;28;20601;-71
2022/07/24 09:20:27;;;;;;;1.47;1.10;;;40.10;34.80;;;;;;5055992;28;20880;-71
2022/07/24 09:22:53;;;;;;;1.53;1.30;;;40.50;35.60;;;;;;5054583;28;20797;-71
2022/07/24 09:25:24;;;;;;;1.70;1.60;;;40.70;33.70;;;;;;5053930;28;20928;-70
2022/07/24 09:27:55;;;;;;;1.73;1.53;;;40.80;34.20;;;;;;5054155;28;20485;-70
2022/07/24 09:30:31;;;;;;;1.90;1.80;;;40.90;33.80;;;;;;5055226;28;20957;-71
2022/07/24 09:33:04;;;;;;;1.53;1.43;;;40.90;33.20;;;;;;5055743;28;20764;-70
2022/07/24 09:35:39;;;;;;;1.97;1.87;;;41.00;33.70;;;;;;5055453;28;20416;-69
2022/07/24 09:38:07;;;;;;;1.70;1.60;;;40.80;33.50;;;;;;5054212;28;20428;-70
2022/07/24 09:40:35;;;;;;;1.43;1.33;;;40.60;34.80;;;;;;5054568;28;20409;-70
2022/07/24 09:43:22;;;;;;;2.10;1.90;;;40.70;34.60;;;;;;5054665;28;20411;-70
2022/07/24 09:46:04;;;;;;;1.67;1.57;;;40.60;33.40;;;;;;5055273;28;20459;-71
2022/07/24 09:48:31;;;;;;;1.67;1.57;;;40.80;34.30;;;;;;5055288;28;20445;-71
2022/07/24 09:51:06;;;;;;;1.60;1.50;;;39.80;35.70;;;;;;5055116;28;20397;-70
2022/07/24 09:53:34;;;;;;;2.20;1.97;;;39.30;37.00;;;;;;5055114;28;20392;-70
2022/07/24 09:56:08;;;;;;;1.93;1.70;;;39.10;34.70;;;;;;5055311;28;20401;-70
2022/07/24 09:58:36;;;;;;;2.10;2.00;;;38.80;33.70;;;;;;5055175;28;20519;-70
2022/07/24 10:01:04;;;;;;;1.60;1.50;;;39.30;36.70;;;;;;5054933;28;20771;-69
2022/07/24 10:03:33;;;;;;;2.33;2.10;;;39.80;36.20;;;;;;5054772;28;20466;-71
2022/07/24 10:06:02;;;;;;;2.60;2.40;;;39.90;35.10;;;;;;5054920;28;20400;-70
2022/07/24 10:08:29;;;;;;;2.40;2.20;;;38.70;36.00;;;;;;5054746;28;20490;-69
2022/07/24 10:10:55;;;;;;;2.30;1.97;;;37.10;38.80;;;;;;5054729;28;20492;-69
2022/07/24 10:13:24;;;;;;;2.30;2.10;;;35.80;41.20;;;;;;5054452;28;20411;-71
2022/07/24 10:16:11;;;;;;;3.53;2.10;;;35.00;42.40;;;;;;5053585;28;20757;-69
2022/07/24 10:19:00;;;;;;;3.50;2.37;;;34.40;43.70;;;;;;5053786;28;20425;-70
2022/07/24 10:21:35;;;;;;;1.57;1.47;;;33.60;44.00;;;;;;5053808;28;20393;-69
2022/07/24 10:24:03;;;;;;;1.60;1.50;;;33.50;45.00;;;;;;5053440;28;20455;-70
2022/07/24 10:26:42;;;;;;;2.50;1.63;;;33.70;44.80;;;;;;5052437;28;20405;-70
2022/07/24 10:29:12;;;;;;;2.10;2.00;;;34.10;43.30;;;;;;5053851;28;20840;-70
2022/07/24 10:31:46;;;;;;;1.93;1.83;;;34.20;43.80;;;;;;5054121;28;20931;-70
2022/07/24 10:34:29;;;;;;;2.50;2.33;;;34.50;44.20;;;;;;5054152;28;20407;-70
2022/07/24 10:37:06;;;;;;;1.87;1.60;;;34.60;42.40;;;;;;5054259;28;20409;-69
2022/07/24 10:39:51;;;;;;;2.37;1.70;;;34.90;42.00;;;;;;5054366;28;20516;-70
2022/07/24 10:42:17;;;;;;;1.87;1.77;;;35.20;41.10;;;;;;5054406;28;20415;-70
2022/07/24 10:44:44;;;;;;;4.20;2.00;;;35.50;41.50;;;;;;5053793;28;20547;-70
2022/07/24 10:47:13;;;;;;;2.50;2.30;;;35.80;41.60;;;;;;5053908;28;20163;-69
2022/07/24 10:49:50;;;;;;;1.60;1.50;;;35.80;40.70;;;;;;5053802;28;20405;-70
2022/07/24 10:52:27;;;;;;;2.90;2.60;;;36.00;41.90;;;;;;5053956;28;20401;-70
2022/07/24 10:55:31;;;;;;;4.13;1.87;;;36.00;42.30;;;;;;5053969;28;20405;-69
2022/07/24 10:58:09;;;;;;;2.23;2.03;;;35.60;42.60;;;;;;5036070;28;20432;-69
2022/07/24 11:00:38;;;;;;;2.10;2.00;;;35.10;41.40;;;;;;5053876;28;20830;-70
2022/07/24 11:03:17;;;;;;;1.20;1.10;;;34.70;43.50;;;;;;5053842;28;20420;-69
2022/07/24 11:05:42;;;;;;;1.40;1.30;;;34.40;42.20;;;;;;5053927;28;20459;-70
2022/07/24 11:08:20;;;;;;;1.80;1.70;;;33.80;43.40;;;;;;5053776;28;20420;-69
2022/07/24 11:10:50;;;;;;;1.80;1.60;;;33.60;43.00;;;;;;5053814;28;20174;-69
2022/07/24 11:13:31;;;;;;;2.73;2.30;;;33.50;46.10;;;;;;5053621;28;20472;-70
2022/07/24 11:16:15;;;;;;;1.93;1.70;;;33.00;44.20;;;;;;5053440;28;20442;-70
2022/07/24 11:18:50;;;;;;;1.43;1.33;;;32.90;47.40;;;;;;5053839;28;20460;-70
2022/07/24 11:21:29;;;;;;;1.70;1.60;;;33.10;46.40;;;;;;5052879;28;20412;-70
2022/07/24 11:24:24;;;;;;;2.20;2.00;;;32.90;46.60;;;;;;5052841;28;20465;-70
2022/07/24 11:26:53;;;;;;;2.17;1.70;;;32.30;46.30;;;;;;5053308;28;20450;-70
2022/07/24 11:29:19;;;;;;;2.57;2.13;;;31.80;47.40;;;;;;5053362;28;20452;-71
2022/07/24 11:31:47;;;;;;;2.43;2.23;;;31.60;47.90;;;;;;5053327;28;20435;-69
2022/07/24 11:34:13;;;;;;;1.90;1.73;;;31.20;47.70;;;;;;5053279;28;20265;-70
2022/07/24 11:36:47;;;;;;;1.70;1.60;;;31.00;48.20;;;;;;5053554;28;20436;-69
2022/07/24 11:39:14;;;;;;;2.00;1.90;;;30.70;48.30;;;;;;5053308;28;20503;-70
2022/07/24 11:41:45;;;;;;;2.23;2.10;;;30.50;48.50;;;;;;5053423;28;20893;-69
2022/07/24 11:44:11;;;;;;;2.33;1.60;;;30.30;50.80;;;;;;5053197;28;20451;-69
2022/07/24 11:46:41;;;;;;;3.17;1.73;;;30.10;50.50;;;;;;5053197;28;20413;-69
2022/07/24 11:49:09;;;;;;;2.20;1.90;;;30.00;50.90;;;;;;5053113;28;20459;-70
2022/07/24 11:51:42;;;;;;;1.77;1.67;;;29.60;50.60;;;;;;5052409;28;20767;-69
2022/07/24 11:54:09;;;;;;;1.67;1.57;;;29.30;54.60;;;;;;5052753;28;20405;-70
2022/07/24 11:56:35;;;;;;;2.07;1.87;;;29.30;55.30;;;;;;5053327;28;20775;-70
2022/07/24 11:59:00;;;;;;;1.13;1.07;;;29.10;52.00;;;;;;5053067;28;20439;-70
2022/07/24 12:01:26;;;;;;;1.50;1.40;;;29.10;55.80;;;;;;5053908;28;20186;-69
2022/07/24 12:03:53;;;;;;;1.87;1.73;;;29.10;58.60;;;;;;5039114;28;20549;-69
2022/07/24 12:06:20;;;;;;;1.73;1.63;;;29.20;56.70;;;;;;5057054;28;20185;-70
2022/07/24 12:08:45;;;;;;;2.90;2.60;;;29.50;54.90;;;;;;5056874;28;20428;-68
2022/07/24 12:11:19;;;;;;;1.07;1.00;;;30.00;52.50;;;;;;5057209;28;20747;-69
2022/07/24 12:13:44;;;;;;;1.67;1.57;;;30.00;51.50;;;;;;5056906;28;20170;-68
2022/07/24 12:16:10;;;;;;;1.53;1.43;;;29.60;51.60;;;;;;5057094;28;20396;-69
2022/07/24 12:18:36;;;;;;;1.67;1.57;;;29.40;56.40;;;;;;5056854;28;20186;-69
2022/07/24 12:21:03;;;;;;;2.10;1.97;;;28.90;56.30;;;;;;5056917;28;20807;-68
2022/07/24 12:23:29;;;;;;;1.20;1.20;;;28.60;59.80;;;;;;5056741;28;20166;-69
2022/07/24 12:25:55;;;;;;;3.63;1.70;;;28.20;60.80;;;;;;5056804;28;20944;-69
2022/07/24 12:28:21;;;;;;;1.50;1.40;;;28.00;62.90;;;;;;5056797;28;20446;-69
2022/07/24 12:30:50;;;;;;;1.70;1.60;;;27.70;67.30;;;;;;5056677;28;20972;-69
2022/07/24 12:33:26;;;;;;;1.83;1.50;;;27.50;65.50;;;;;;5056422;28;20524;-70
2022/07/24 12:36:10;;;;;;;1.23;1.10;;;27.40;66.00;;;;;;5056639;28;20408;-69
2022/07/24 12:38:37;;;;;;;1.20;1.10;;;27.30;69.50;;;;;;5056614;28;20424;-69
2022/07/24 12:41:07;;;;;;;1.60;1.50;;;27.30;71.20;;;;;;5056432;28;20412;-68
2022/07/24 12:43:48;;;;;;;2.43;2.10;;;27.40;70.70;;;;;;5038344;28;20421;-69
2022/07/24 12:46:14;;;;;;;1.70;1.60;;;27.30;70.20;;;;;;5056620;28;20404;-69
2022/07/24 12:48:54;;;;;;;0.93;0.93;;;27.40;67.90;;;;;;5056161;28;20812;-69